Terminal Aerodrome Forecast
Issued by NWS

Current Version | Previous Version | Text Only | Print | Product List | Glossary Off
Versions: 1 2 3 4 5 6 7 8 9 10 11 12 13 14 15 16 17 18 19 20 21 22

000
FTUS41 KPBZ 191604 AAA
TAFMGW
TAF AMD
KMGW 191604Z 1916/2012 00000KT P6SM OVC009
     FM192300 20003KT P6SM OVC015
     FM200900 14008KT P6SM VCSH OVC060
     FM201100 15008KT 6SM -SHRA OVC025=

USA.gov is the U.S. government's official web portal to all federal, state and local government web resources and services.